createdAt,value
2023-02-19T00:01:38.476Z,9.48
2023-02-19T00:04:07.588Z,9.50
2023-02-19T00:06:36.387Z,9.18
2023-02-19T00:09:04.173Z,9.20
2023-02-19T00:11:33.299Z,10.00
2023-02-19T00:14:03.683Z,9.82
2023-02-19T00:16:32.846Z,9.70
2023-02-19T00:19:02.177Z,8.88
2023-02-19T00:21:30.243Z,9.23
2023-02-19T00:23:59.673Z,9.77
2023-02-19T00:26:27.795Z,10.57
2023-02-19T00:28:56.299Z,9.13
2023-02-19T00:31:26.802Z,9.73
2023-02-19T00:33:56.096Z,9.43
2023-02-19T00:36:24.432Z,9.85
2023-02-19T00:38:52.572Z,9.60
2023-02-19T00:41:22.002Z,9.52
2023-02-19T00:43:51.153Z,9.77
2023-02-19T00:46:20.990Z,10.70
2023-02-19T00:48:50.085Z,9.15
2023-02-19T00:51:17.759Z,9.23
2023-02-19T00:53:45.492Z,9.85
2023-02-19T00:56:13.619Z,10.07
2023-02-19T00:58:41.192Z,10.27
2023-02-19T01:01:09.736Z,10.93
2023-02-19T01:03:39.887Z,9.13
2023-02-19T01:06:10.488Z,9.45
2023-02-19T01:08:38.399Z,9.77
2023-02-19T01:11:07.723Z,9.15
2023-02-19T01:13:35.748Z,9.80
2023-02-19T01:16:07.634Z,9.63
2023-02-19T01:18:35.745Z,8.95
2023-02-19T01:21:07.096Z,10.05
2023-02-19T01:23:36.416Z,9.52
2023-02-19T01:26:06.303Z,9.77
2023-02-19T01:28:34.085Z,10.45
2023-02-19T01:31:03.000Z,9.93
2023-02-19T01:33:30.735Z,9.80
2023-02-19T01:35:58.418Z,9.77
2023-02-19T01:38:26.172Z,9.60
2023-02-19T01:40:59.444Z,10.23
2023-02-19T01:43:27.348Z,10.20
2023-02-19T01:45:55.401Z,10.60
2023-02-19T01:48:26.338Z,9.55
2023-02-19T01:50:55.820Z,9.60
2023-02-19T01:53:26.109Z,9.38
2023-02-19T01:55:56.152Z,10.20
2023-02-19T01:58:27.750Z,9.77
2023-02-19T02:00:55.491Z,9.77
2023-02-19T02:03:23.289Z,10.00
2023-02-19T02:05:55.769Z,9.65
2023-02-19T02:08:41.233Z,9.23
2023-02-19T02:11:09.291Z,9.40
2023-02-19T02:13:39.612Z,9.43
2023-02-19T02:16:18.918Z,10.07
2023-02-19T02:18:55.491Z,9.45
2023-02-19T02:21:36.884Z,10.07
2023-02-19T02:24:13.891Z,10.02
2023-02-19T02:26:49.983Z,11.32
2023-02-19T02:29:46.702Z,10.00
2023-02-19T02:32:17.239Z,9.27
2023-02-19T02:34:49.483Z,9.20
2023-02-19T02:39:46.960Z,9.90
2023-02-19T02:42:29.677Z,9.45
2023-02-19T02:45:17.114Z,9.15
2023-02-19T02:47:46.383Z,9.70
2023-02-19T02:50:17.110Z,10.55
2023-02-19T02:53:03.998Z,9.75
2023-02-19T02:55:32.705Z,9.23
2023-02-19T02:58:00.614Z,10.30
2023-02-19T03:00:50.700Z,8.98
2023-02-19T03:03:20.620Z,10.10
2023-02-19T03:05:55.211Z,9.63
2023-02-19T03:08:25.599Z,10.35
2023-02-19T03:10:56.349Z,9.82
2023-02-19T03:13:45.515Z,8.80
2023-02-19T03:16:35.401Z,10.27
2023-02-19T03:19:22.858Z,8.95
2023-02-19T03:21:53.959Z,10.20
2023-02-19T03:24:41.868Z,10.30
2023-02-19T03:27:11.448Z,11.07
2023-02-19T03:29:40.542Z,9.73
2023-02-19T03:32:12.505Z,10.35
2023-02-19T03:34:45.227Z,9.70
2023-02-19T03:37:15.346Z,10.23
2023-02-19T03:39:45.271Z,10.20
2023-02-19T03:42:19.377Z,10.90
2023-02-19T03:44:53.647Z,11.20
2023-02-19T03:47:25.607Z,9.95
2023-02-19T03:49:58.037Z,10.80
2023-02-19T03:52:37.810Z,10.73
2023-02-19T03:55:08.721Z,10.00
2023-02-19T03:57:43.300Z,10.07
2023-02-19T04:00:13.205Z,9.60
2023-02-19T04:02:44.905Z,9.75
2023-02-19T04:05:16.098Z,10.40
2023-02-19T04:07:47.302Z,10.27
2023-02-19T04:10:15.634Z,9.93
2023-02-19T04:12:45.925Z,10.73
2023-02-19T04:15:14.742Z,10.40
2023-02-19T04:17:47.781Z,9.10
2023-02-19T04:20:15.979Z,10.48
2023-02-19T04:22:44.120Z,10.82
2023-02-19T04:25:12.060Z,9.73
2023-02-19T04:27:39.785Z,9.60
2023-02-19T04:30:10.457Z,10.00
2023-02-19T04:32:38.195Z,10.57
2023-02-19T04:35:07.658Z,10.63
2023-02-19T04:37:35.280Z,10.40
2023-02-19T04:40:02.937Z,10.38
2023-02-19T04:42:30.560Z,10.15
2023-02-19T04:44:58.178Z,10.82
2023-02-19T04:47:25.953Z,9.23
2023-02-19T04:49:53.583Z,9.77
2023-02-19T04:52:22.514Z,9.30
2023-02-19T04:54:50.135Z,8.63
2023-02-19T04:57:17.775Z,9.50
2023-02-19T04:59:45.360Z,9.77
2023-02-19T05:02:12.956Z,8.90
2023-02-19T05:04:40.629Z,9.40
2023-02-19T05:07:08.292Z,9.38
2023-02-19T05:09:37.222Z,8.50
2023-02-19T05:12:04.944Z,9.63
2023-02-19T05:14:32.549Z,10.15
2023-02-19T05:17:00.159Z,9.55
2023-02-19T05:19:27.869Z,8.57
2023-02-19T05:21:55.482Z,8.95
2023-02-19T05:24:24.396Z,9.02
2023-02-19T05:26:53.355Z,9.35
2023-02-19T05:29:20.942Z,8.88
2023-02-19T05:31:48.980Z,9.40
2023-02-19T05:34:16.751Z,8.80
2023-02-19T05:36:45.160Z,9.70
2023-02-19T05:39:13.180Z,8.75
2023-02-19T05:41:40.780Z,8.70
2023-02-19T05:44:10.998Z,8.38
2023-02-19T05:46:38.597Z,9.48
2023-02-19T05:49:06.182Z,9.60
2023-02-19T05:51:33.803Z,8.45
2023-02-19T05:54:01.389Z,9.27
2023-02-19T05:56:32.440Z,8.93
2023-02-19T05:59:00.904Z,8.50
2023-02-19T06:01:29.959Z,9.02
2023-02-19T06:03:58.424Z,8.82
2023-02-19T06:06:26.871Z,8.55
2023-02-19T06:08:55.134Z,9.32
2023-02-19T06:11:22.805Z,9.02
2023-02-19T06:13:51.111Z,9.07
2023-02-19T06:16:19.420Z,8.90
2023-02-19T06:18:48.998Z,8.95
2023-02-19T06:21:18.422Z,8.75
2023-02-19T06:23:46.476Z,9.68
2023-02-19T06:26:15.700Z,8.68
2023-02-19T06:28:43.556Z,8.35
2023-02-19T06:31:11.972Z,8.90
2023-02-19T06:33:40.747Z,9.45
2023-02-19T06:36:12.980Z,9.30
2023-02-19T06:41:09.216Z,9.15
2023-02-19T06:43:37.346Z,9.43
2023-02-19T06:46:06.963Z,9.82
2023-02-19T06:48:35.027Z,9.48
2023-02-19T06:51:02.856Z,9.48
2023-02-19T06:53:31.911Z,9.73
2023-02-19T06:56:00.462Z,10.13
2023-02-19T06:58:28.650Z,10.52
2023-02-19T07:00:56.601Z,9.98
2023-02-19T07:03:24.509Z,9.27
2023-02-19T07:05:52.109Z,9.65
2023-02-19T07:08:19.776Z,10.27
2023-02-19T07:10:55.385Z,9.13
2023-02-19T07:13:23.042Z,9.60
2023-02-19T07:15:52.189Z,9.82
2023-02-19T07:18:20.056Z,9.10
2023-02-19T07:20:47.666Z,9.73
2023-02-19T07:23:15.351Z,9.40
2023-02-19T07:25:42.968Z,9.50
2023-02-19T07:28:11.937Z,9.93
2023-02-19T07:30:39.526Z,9.55
2023-02-19T07:33:10.037Z,9.23
2023-02-19T07:35:37.995Z,9.60
2023-02-19T07:38:05.654Z,9.52
2023-02-19T07:40:33.270Z,9.60
2023-02-19T07:43:01.315Z,9.73
2023-02-19T07:45:30.258Z,9.55
2023-02-19T07:47:57.803Z,9.38
2023-02-19T07:50:25.428Z,10.35
2023-02-19T07:52:53.006Z,9.70
2023-02-19T07:55:20.599Z,9.32
2023-02-19T07:57:48.174Z,9.25
2023-02-19T08:00:16.493Z,9.38
2023-02-19T08:03:03.244Z,10.10
2023-02-19T08:05:32.631Z,9.48
2023-02-19T08:08:00.969Z,9.77
2023-02-19T08:10:46.316Z,9.25
2023-02-19T08:13:23.540Z,9.55
2023-02-19T08:15:52.560Z,9.05
2023-02-19T08:18:23.201Z,10.73
2023-02-19T08:20:51.055Z,8.75
2023-02-19T08:23:20.618Z,9.82
2023-02-19T08:25:48.904Z,9.50
2023-02-19T08:28:16.704Z,9.90
2023-02-19T08:30:46.394Z,9.23
2023-02-19T08:33:16.546Z,9.32
2023-02-19T08:35:46.028Z,10.13
2023-02-19T08:38:16.277Z,10.02
2023-02-19T08:40:44.175Z,9.85
2023-02-19T08:43:13.292Z,10.38
2023-02-19T08:45:42.118Z,9.90
2023-02-19T08:48:10.179Z,10.57
2023-02-19T08:50:38.594Z,10.18
2023-02-19T08:53:08.020Z,9.85
2023-02-19T08:55:35.668Z,9.43
2023-02-19T08:58:03.315Z,12.23
2023-02-19T09:00:30.918Z,10.02
2023-02-19T09:02:58.855Z,10.23
2023-02-19T09:05:26.642Z,11.10
2023-02-19T09:07:54.238Z,9.90
2023-02-19T09:10:23.375Z,9.70
2023-02-19T09:12:50.984Z,9.07
2023-02-19T09:15:18.910Z,8.82
2023-02-19T09:17:46.512Z,8.43
2023-02-19T09:20:14.283Z,8.90
2023-02-19T09:22:41.915Z,8.75
2023-02-19T09:25:09.527Z,8.32
2023-02-19T09:27:38.526Z,9.48
2023-02-19T09:30:06.802Z,9.00
2023-02-19T09:32:34.587Z,8.27
2023-02-19T09:35:02.193Z,8.65
2023-02-19T09:37:29.977Z,8.00
2023-02-19T09:39:57.621Z,8.43
2023-02-19T09:42:29.763Z,8.23
2023-02-19T09:47:28.171Z,7.65
2023-02-19T09:49:58.101Z,8.85
2023-02-19T09:52:31.262Z,8.35
2023-02-19T09:55:02.127Z,8.40
2023-02-19T09:57:31.449Z,8.88
2023-02-19T10:00:05.586Z,8.40
2023-02-19T10:02:33.520Z,8.68
2023-02-19T10:05:01.727Z,7.65
2023-02-19T10:07:36.859Z,8.13
2023-02-19T10:10:19.811Z,8.55
2023-02-19T10:12:50.592Z,8.85
2023-02-19T10:15:25.151Z,8.48
2023-02-19T10:17:52.829Z,7.78
2023-02-19T10:20:24.631Z,8.30
2023-02-19T10:23:00.673Z,7.65
2023-02-19T10:25:28.602Z,7.97
2023-02-19T10:27:56.281Z,7.93
2023-02-19T10:30:26.879Z,7.97
2023-02-19T10:33:03.553Z,8.10
2023-02-19T10:35:31.550Z,7.28
2023-02-19T10:37:59.255Z,7.43
2023-02-19T10:40:28.148Z,8.00
2023-02-19T10:42:58.839Z,8.32
2023-02-19T10:45:35.436Z,8.52
2023-02-19T10:48:04.049Z,7.78
2023-02-19T10:50:33.416Z,8.35
2023-02-19T10:53:01.957Z,8.02
2023-02-19T10:55:32.884Z,8.35
2023-02-19T10:58:25.385Z,7.95
2023-02-19T11:03:38.863Z,7.60
2023-02-19T11:06:09.282Z,8.48
2023-02-19T11:08:50.040Z,7.30
2023-02-19T11:11:26.147Z,7.93
2023-02-19T11:13:54.689Z,7.57
2023-02-19T11:16:24.130Z,8.35
2023-02-19T11:18:57.240Z,8.07
2023-02-19T11:21:32.820Z,7.78
2023-02-19T11:24:01.460Z,7.40
2023-02-19T11:26:32.883Z,7.57
2023-02-19T11:29:01.689Z,7.82
2023-02-19T11:31:32.140Z,7.80
2023-02-19T11:34:01.142Z,8.27
2023-02-19T11:36:33.786Z,8.30
2023-02-19T11:39:07.188Z,7.60
2023-02-19T11:41:53.585Z,7.22
2023-02-19T11:44:31.136Z,7.75
2023-02-19T11:47:34.416Z,8.02
2023-02-19T11:50:06.200Z,7.90
2023-02-19T11:52:36.830Z,8.52
2023-02-19T11:55:12.406Z,7.80
2023-02-19T11:57:43.288Z,8.00
2023-02-19T12:00:21.745Z,7.63
2023-02-19T12:03:30.488Z,8.13
2023-02-19T12:06:07.705Z,8.10
2023-02-19T12:08:51.796Z,8.48
2023-02-19T12:11:31.167Z,7.78
2023-02-19T12:14:18.848Z,7.97
2023-02-19T12:16:51.398Z,7.60
2023-02-19T12:19:34.552Z,8.98
2023-02-19T12:22:14.217Z,7.63
2023-02-19T12:25:11.598Z,8.93
2023-02-19T12:27:50.588Z,8.40
2023-02-19T12:30:29.450Z,8.23
2023-02-19T12:33:27.662Z,8.48
2023-02-19T12:36:05.199Z,8.18
2023-02-19T12:38:37.949Z,8.25
2023-02-19T12:41:20.879Z,7.80
2023-02-19T12:43:54.119Z,8.88
2023-02-19T12:46:25.738Z,8.10
2023-02-19T12:48:58.962Z,8.10
2023-02-19T12:51:30.084Z,9.00
2023-02-19T12:54:00.173Z,8.32
2023-02-19T12:56:32.036Z,8.73
2023-02-19T12:59:02.413Z,9.02
2023-02-19T13:01:34.669Z,8.90
2023-02-19T13:04:15.463Z,9.02
2023-02-19T13:06:46.377Z,8.43
2023-02-19T13:09:17.243Z,8.85
2023-02-19T13:11:47.890Z,9.10
2023-02-19T13:14:20.301Z,8.32
2023-02-19T13:16:52.002Z,8.52
2023-02-19T13:19:19.655Z,8.45
2023-02-19T13:22:10.310Z,8.23
2023-02-19T13:24:41.595Z,8.45
2023-02-19T13:27:20.981Z,8.10
2023-02-19T13:29:59.375Z,7.50
2023-02-19T13:32:50.323Z,8.35
2023-02-19T13:35:26.443Z,8.50
2023-02-19T13:37:56.524Z,8.32
2023-02-19T13:40:29.088Z,7.90
2023-02-19T13:42:58.293Z,8.23
2023-02-19T13:45:33.100Z,7.60
2023-02-19T13:48:03.066Z,7.85
2023-02-19T13:50:32.294Z,8.02
2023-02-19T13:53:01.833Z,7.68
2023-02-19T13:55:53.230Z,7.80
2023-02-19T13:58:52.031Z,7.93
2023-02-19T14:01:19.683Z,8.20
2023-02-19T14:03:52.066Z,7.60
2023-02-19T14:06:19.722Z,7.57
2023-02-19T14:08:51.379Z,7.85
2023-02-19T14:11:20.251Z,7.80
2023-02-19T14:14:06.732Z,8.10
2023-02-19T14:16:52.943Z,7.85
2023-02-19T14:19:46.503Z,8.02
2023-02-19T14:22:56.817Z,7.60
2023-02-19T14:25:38.174Z,7.78
2023-02-19T14:28:14.443Z,8.50
2023-02-19T14:30:47.420Z,7.93
2023-02-19T14:33:16.377Z,8.18
2023-02-19T14:35:46.186Z,7.40
2023-02-19T14:38:19.046Z,8.00
2023-02-19T14:40:49.254Z,7.75
2023-02-19T14:43:19.048Z,7.72
2023-02-19T14:45:48.881Z,7.82
2023-02-19T14:48:19.865Z,7.47
2023-02-19T14:50:49.385Z,7.43
2023-02-19T14:53:18.326Z,7.65
2023-02-19T14:55:48.990Z,7.50
2023-02-19T14:58:19.814Z,7.90
2023-02-19T15:00:47.544Z,7.43
2023-02-19T15:03:30.505Z,9.50
2023-02-19T15:06:00.815Z,8.20
2023-02-19T15:08:32.735Z,7.95
2023-02-19T15:11:02.427Z,7.72
2023-02-19T15:13:31.350Z,7.97
2023-02-19T15:15:59.098Z,7.90
2023-02-19T15:18:28.062Z,7.50
2023-02-19T15:21:01.179Z,7.90
2023-02-19T15:23:31.406Z,7.78
2023-02-19T15:26:00.908Z,7.93
2023-02-19T15:28:32.943Z,8.63
2023-02-19T15:31:11.768Z,8.38
2023-02-19T15:33:39.624Z,8.27
2023-02-19T15:36:09.221Z,8.50
2023-02-19T15:38:36.916Z,8.60
2023-02-19T15:41:06.216Z,8.57
2023-02-19T15:43:39.287Z,7.97
2023-02-19T15:46:12.694Z,8.30
2023-02-19T15:48:42.384Z,8.00
2023-02-19T15:51:14.636Z,8.05
2023-02-19T15:53:44.470Z,7.97
2023-02-19T15:56:17.987Z,7.55
2023-02-19T15:58:48.012Z,7.95
2023-02-19T16:01:19.397Z,8.25
2023-02-19T16:03:47.134Z,8.10
2023-02-19T16:06:16.693Z,8.07
2023-02-19T16:08:45.716Z,7.38
2023-02-19T16:11:31.743Z,8.18
2023-02-19T16:14:17.635Z,7.55
2023-02-19T16:16:45.819Z,7.70
2023-02-19T16:19:13.484Z,8.00
2023-02-19T16:21:44.504Z,8.23
2023-02-19T16:24:15.550Z,7.88
2023-02-19T16:26:46.124Z,7.32
2023-02-19T16:29:21.933Z,7.65
2023-02-19T16:31:50.940Z,7.85
2023-02-19T16:34:20.251Z,8.05
2023-02-19T16:36:49.239Z,7.85
2023-02-19T16:39:24.431Z,8.23
2023-02-19T16:42:23.607Z,7.97
2023-02-19T16:44:51.211Z,8.27
2023-02-19T16:47:28.545Z,7.57
2023-02-19T16:49:56.611Z,7.55
2023-02-19T16:52:24.285Z,8.20
2023-02-19T16:54:51.885Z,8.88
2023-02-19T16:57:20.494Z,8.35
2023-02-19T16:59:49.551Z,8.75
2023-02-19T17:02:20.882Z,8.10
2023-02-19T17:04:50.718Z,5.77
2023-02-19T17:07:19.569Z,7.85
2023-02-19T17:09:47.443Z,7.57
2023-02-19T17:12:17.742Z,8.10
2023-02-19T17:14:45.548Z,9.30
2023-02-19T17:17:14.503Z,8.20
2023-02-19T17:19:42.108Z,8.63
2023-02-19T17:22:09.743Z,7.93
2023-02-19T17:24:37.362Z,8.07
2023-02-19T17:27:05.134Z,7.60
2023-02-19T17:29:33.961Z,8.63
2023-02-19T17:32:02.046Z,8.52
2023-02-19T17:34:32.199Z,7.63
2023-02-19T17:36:59.825Z,8.07
2023-02-19T17:39:27.761Z,7.68
2023-02-19T17:41:55.359Z,8.43
2023-02-19T17:44:23.051Z,8.48
2023-02-19T17:46:50.781Z,7.55
2023-02-19T17:49:19.595Z,8.32
2023-02-19T17:51:48.540Z,8.38
2023-02-19T17:54:16.141Z,8.38
2023-02-19T17:56:45.993Z,8.38
2023-02-19T17:59:14.182Z,8.18
2023-02-19T18:01:41.755Z,7.90
2023-02-19T18:04:09.418Z,8.48
2023-02-19T18:06:37.031Z,8.20
2023-02-19T18:09:06.027Z,7.65
2023-02-19T18:11:33.690Z,8.88
2023-02-19T18:14:01.776Z,8.48
2023-02-19T18:16:29.367Z,8.25
2023-02-19T18:18:58.375Z,8.45
2023-02-19T18:21:26.240Z,7.93
2023-02-19T18:23:53.816Z,8.93
2023-02-19T18:26:22.756Z,8.80
2023-02-19T18:28:50.345Z,8.55
2023-02-19T18:31:18.007Z,9.00
2023-02-19T18:33:45.674Z,8.52
2023-02-19T18:36:13.444Z,8.82
2023-02-19T18:38:41.033Z,8.45
2023-02-19T18:41:13.747Z,7.90
2023-02-19T18:43:42.845Z,9.10
2023-02-19T18:46:10.965Z,8.48
2023-02-19T18:48:38.802Z,8.73
2023-02-19T18:51:09.970Z,8.05
2023-02-19T18:53:37.904Z,7.87
2023-02-19T18:56:08.880Z,8.27
2023-02-19T18:58:36.516Z,8.15
2023-02-19T19:01:05.838Z,8.95
2023-02-19T19:03:33.461Z,8.23
2023-02-19T19:06:01.055Z,8.00
2023-02-19T19:08:30.579Z,8.32
2023-02-19T19:10:58.375Z,9.88
2023-02-19T19:13:25.949Z,8.52
2023-02-19T19:15:53.581Z,9.50
2023-02-19T19:18:24.961Z,9.07
2023-02-19T19:20:56.249Z,10.50
2023-02-19T19:23:23.849Z,8.97
2023-02-19T19:25:51.508Z,9.23
2023-02-19T19:28:19.188Z,14.85
2023-02-19T19:30:47.238Z,16.08
2023-02-19T19:33:14.937Z,18.08
2023-02-19T19:35:43.944Z,9.57
2023-02-19T19:38:11.568Z,8.52
2023-02-19T19:40:42.348Z,8.38
2023-02-19T19:43:10.405Z,8.63
2023-02-19T19:45:38.174Z,8.77
2023-02-19T19:48:06.224Z,8.15
2023-02-19T19:50:34.124Z,8.45
2023-02-19T19:53:03.104Z,8.25
2023-02-19T19:55:30.720Z,8.40
2023-02-19T19:57:58.436Z,9.07
2023-02-19T20:00:26.477Z,8.07
2023-02-19T20:02:54.423Z,8.02
2023-02-19T20:05:22.171Z,8.70
2023-02-19T20:07:50.310Z,9.18
2023-02-19T20:10:20.002Z,8.27
2023-02-19T20:12:49.119Z,8.75
2023-02-19T20:15:21.267Z,8.55
2023-02-19T20:20:18.094Z,8.38
2023-02-19T20:22:45.708Z,8.23
2023-02-19T20:25:13.321Z,9.30
2023-02-19T20:27:42.487Z,7.90
2023-02-19T20:30:12.722Z,9.15
2023-02-19T20:32:40.415Z,9.13
2023-02-19T20:35:08.440Z,8.45
2023-02-19T20:37:38.758Z,8.90
2023-02-19T20:40:08.423Z,9.13
2023-02-19T20:42:36.055Z,9.00
2023-02-19T20:45:05.450Z,8.57
2023-02-19T20:47:33.061Z,8.57
2023-02-19T20:50:00.777Z,9.60
2023-02-19T20:52:28.363Z,9.23
2023-02-19T20:54:56.701Z,8.70
2023-02-19T20:57:24.785Z,8.82
2023-02-19T20:59:52.433Z,9.48
2023-02-19T21:02:24.485Z,8.23
2023-02-19T21:07:19.916Z,8.55
2023-02-19T21:09:47.883Z,8.43
2023-02-19T21:12:15.563Z,8.88
2023-02-19T21:14:43.520Z,9.13
2023-02-19T21:17:11.213Z,10.00
2023-02-19T21:19:40.253Z,9.40
2023-02-19T21:22:07.880Z,9.18
2023-02-19T21:24:35.621Z,8.57
2023-02-19T21:27:03.243Z,8.45
2023-02-19T21:29:30.861Z,9.10
2023-02-19T21:31:58.997Z,8.98
2023-02-19T21:34:28.852Z,8.65
2023-02-19T21:36:58.021Z,10.05
2023-02-19T21:39:27.450Z,8.73
2023-02-19T21:41:55.137Z,8.50
2023-02-19T21:44:22.834Z,10.07
2023-02-19T21:46:50.429Z,9.30
2023-02-19T21:49:18.492Z,9.73
2023-02-19T21:51:47.978Z,8.98
2023-02-19T21:54:18.297Z,9.85
2023-02-19T21:56:46.287Z,9.20
2023-02-19T21:59:14.014Z,8.57
2023-02-19T22:01:43.222Z,8.40
2023-02-19T22:04:12.771Z,9.48
2023-02-19T22:06:40.602Z,9.35
2023-02-19T22:09:08.758Z,9.48
2023-02-19T22:11:38.107Z,9.18
2023-02-19T22:14:05.680Z,9.50
2023-02-19T22:16:33.377Z,9.80
2023-02-19T22:19:01.200Z,9.88
2023-02-19T22:21:32.522Z,8.38
2023-02-19T22:24:01.133Z,5.88
2023-02-19T22:26:31.034Z,9.75
2023-02-19T22:29:01.370Z,7.97
2023-02-19T22:31:29.532Z,8.40
2023-02-19T22:33:57.656Z,8.10
2023-02-19T22:36:27.684Z,9.13
2023-02-19T22:38:55.576Z,8.95
2023-02-19T22:41:24.239Z,9.60
2023-02-19T22:43:51.936Z,8.80
2023-02-19T22:46:23.371Z,9.05
2023-02-19T22:48:51.267Z,9.57
2023-02-19T22:51:20.745Z,8.68
2023-02-19T22:53:49.413Z,9.63
2023-02-19T22:56:18.381Z,9.10
2023-02-19T22:58:46.630Z,9.50
2023-02-19T23:01:15.510Z,9.93
2023-02-19T23:03:49.294Z,8.50
2023-02-19T23:06:17.692Z,8.23
2023-02-19T23:08:45.604Z,8.48
2023-02-19T23:11:14.004Z,8.38
2023-02-19T23:13:42.171Z,9.07
2023-02-19T23:16:10.011Z,8.63
2023-02-19T23:18:37.738Z,9.00
2023-02-19T23:21:06.833Z,9.13
2023-02-19T23:23:34.426Z,9.60
2023-02-19T23:26:02.108Z,9.70
2023-02-19T23:28:29.797Z,9.43
2023-02-19T23:30:57.541Z,9.77
2023-02-19T23:33:25.193Z,9.13
2023-02-19T23:35:52.834Z,8.80
2023-02-19T23:38:21.993Z,9.73
2023-02-19T23:40:49.629Z,8.07
2023-02-19T23:43:17.240Z,9.18
2023-02-19T23:45:44.972Z,8.55
2023-02-19T23:48:12.596Z,9.38
2023-02-19T23:50:40.208Z,9.70
2023-02-19T23:53:07.890Z,9.90
2023-02-19T23:55:36.934Z,9.38
2023-02-19T23:58:04.625Z,9.02
